Saint Clement, Missouri
Current Conditions -  °F | °C
As of 6:15 AM on Friday 28 Nov 2014 (Local Time) from KPPQ Reporting Station
Clear Clear  
Wind Chill: 12°   Ceiling: Unl
Heat Index: 24°   Visibility: 10mi
Dew Point: 20°   Wind: 13mph
Humidity: 87%   Direction: 140°SE
Pressure: 30.21"   Gusts: NA
Location:  39.321°N, 91.1912°W
Report Text: KPPQ 281215Z AUTO 14011KT 10SM CLR M05/M06 A3021 RMK AO2 T10471065 PWINO
Loading
Personal Weather Stations






























Interactive Weather Map New forecast layout! Learn more

10-Day Weather Forecast

Advertisements
Track Severe Weather on mobile